Texico, New Mexico
Current Conditions -  °F | °C
As of 10:35 PM on Thursday 25 Dec 2014 (Local Time) from KCVN Reporting Station
Clear Clear  
Wind Chill: 27°   Ceiling: Unl
Heat Index: 34°   Visibility: 10mi
Dew Point: 21°   Wind: 8mph
Humidity: 60%   Direction: 190°S
Pressure: 29.71"   Gusts: NA
Location:  34.39°N, 103.05°W
Report Text: KCVN 260535Z 19007KT 10SM CLR 01/M06 A2971 RMK AO1
Loading
Personal Weather Stations






























Interactive Weather Map New forecast layout! Learn more

10-Day Weather Forecast

Advertisements
Track Severe Weather on mobile